Enter the Airport ICAO Code

Search by Airport or City

Current Weather

SBFL | Hercílio Luz International Airport

Florianópolis, Santa Catarina, Brazil

Last Update 42 Minutes Ago

Mostly Cloudy Sky

Temperature of 15 ºC

Light to Moderate Winds from South

Temperature

15 ºC

Dew Point Temperature

12 ºC

Relative Humidity

82.34 %

Wind Direction

South (200º, Without Significant Variations)

Wind Velocity

15 km/h (08 kt)

Gusts

None

Visibility

Greater than 10 Kilometers

Sea Level Pressure

1019 hPa (Hectopascals)

Layers of Clouds

30% to 60% of Sky Covered from 305 mts (1000 ft) Above Ground Level.

60% to 90% of Sky Covered from 579 mts (1900 ft) Above Ground Level.

METAR SBFL 121400Z 20008KT 9999 SCT010 BKN019 15/12 Q1019

Weather Forecast

SBFL | Hercílio Luz International Airport

Florianópolis, Santa Catarina, Brazil

Forecast valid for the next 21 Hours

In the next hour it is expected the begining of:

Partly Cloudy Sky

Maximum Temperature

24 ºC in 3 Hours

Minimum Temperature

18 ºC in 15 Hours

TAF SBFL 120900Z 1212/1312 15009KT CAVOK TX24/1218Z TN18/1306Z BECMG 1214/1216 9999 SCT020 RMK PFN